Terminal Aerodrome Forecast
Issued by NWS

Home | Current Version | Previous Version | Text Only | Print | Product List | Glossary On
Versions: 1 2 3 4 5 6 7 8 9 10 11 12 13 14 15 16 17 18
000
FTUS43 KDVN 181700
TAFBRL
TAF
KBRL 181726Z 1818/1918 14008KT P6SM SCT030
     FM190000 13004KT P6SM SKC
     FM190900 15005KT 4SM BR SCT003
     FM191500 17010KT P6SM SCT250=

USA.gov is the U.S. government's official web portal to all federal, state and local government web resources and services.